createdAt,value
2023-01-11T00:00:30.042Z,97925.47
2023-01-11T00:02:32.487Z,97911.59
2023-01-11T00:04:33.878Z,97918.28
2023-01-11T00:06:35.244Z,97908.81
2023-01-11T00:08:36.646Z,97901.16
2023-01-11T00:10:37.980Z,97908.81
2023-01-11T00:12:39.318Z,97905.34
2023-01-11T00:14:40.663Z,97909.75
2023-01-11T00:16:42.006Z,97902.94
2023-01-11T00:18:43.455Z,97890.94
2023-01-11T00:20:44.803Z,97892.63
2023-01-11T00:22:46.139Z,97891.91
2023-01-11T00:24:47.475Z,97888.56
2023-01-11T00:26:48.855Z,97878.28
2023-01-11T00:28:50.282Z,97887.75
2023-01-11T00:30:51.596Z,97887.03
2023-01-11T00:32:52.976Z,97878.59
2023-01-11T00:34:54.417Z,97873.56
2023-01-11T00:36:55.817Z,97878.50
2023-01-11T00:38:57.164Z,97883.22
2023-01-11T00:41:18.446Z,97872.28
2023-01-11T00:43:38.355Z,97869.56
2023-01-11T00:45:58.282Z,97868.59
2023-01-11T00:48:04.902Z,97866.03
2023-01-11T00:50:06.280Z,97866.03
2023-01-11T00:52:09.272Z,97862.69
2023-01-11T00:54:10.780Z,97867.00
2023-01-11T00:56:12.120Z,97868.78
2023-01-11T00:58:13.409Z,97871.34
2023-01-11T01:00:14.815Z,97857.66
2023-01-11T01:02:16.164Z,97868.72
2023-01-11T01:04:17.526Z,97855.91
2023-01-11T01:06:18.907Z,97866.03
2023-01-11T01:08:20.305Z,97865.88
2023-01-11T01:10:21.641Z,97856.44
2023-01-11T01:12:41.513Z,97854.56
2023-01-11T01:14:44.814Z,97865.41
2023-01-11T01:16:47.306Z,97857.59
2023-01-11T01:18:48.702Z,97859.19
2023-01-11T01:20:49.992Z,97856.44
2023-01-11T01:22:51.327Z,97852.97
2023-01-11T01:24:52.693Z,97847.69
2023-01-11T01:26:54.036Z,97848.47
2023-01-11T01:28:55.393Z,97846.75
2023-01-11T01:30:56.755Z,97842.44
2023-01-11T01:32:58.085Z,97842.44
2023-01-11T01:34:59.437Z,97835.69
2023-01-11T01:37:00.788Z,97818.66
2023-01-11T01:39:02.203Z,97819.53
2023-01-11T01:41:03.538Z,97822.19
2023-01-11T01:43:04.870Z,97828.94
2023-01-11T01:45:07.001Z,97828.13
2023-01-11T01:47:08.335Z,97823.91
2023-01-11T01:49:09.681Z,97810.34
2023-01-11T01:51:10.997Z,97819.94
2023-01-11T01:53:12.305Z,97806.44
2023-01-11T01:55:13.702Z,97805.69
2023-01-11T01:57:15.010Z,97787.09
2023-01-11T01:59:16.345Z,97782.97
2023-01-11T02:01:36.598Z,97769.44
2023-01-11T02:03:37.927Z,97766.97
2023-01-11T02:05:39.267Z,97767.09
2023-01-11T02:07:40.769Z,97761.94
2023-01-11T02:09:42.100Z,97757.72
2023-01-11T02:11:43.466Z,97765.41
2023-01-11T02:13:46.202Z,97771.38
2023-01-11T02:16:07.557Z,97778.25
2023-01-11T02:18:09.140Z,97775.69
2023-01-11T02:20:10.492Z,97769.69
2023-01-11T02:22:13.034Z,97768.81
2023-01-11T02:24:14.321Z,97767.94
2023-01-11T02:26:15.610Z,97772.06
2023-01-11T02:28:16.946Z,97765.97
2023-01-11T02:30:18.248Z,97762.41
2023-01-11T02:32:19.978Z,97764.03
2023-01-11T02:34:21.336Z,97755.41
2023-01-11T02:36:22.635Z,97758.59
2023-01-11T02:38:23.970Z,97749.94
2023-01-11T02:40:25.266Z,97753.28
2023-01-11T02:42:45.380Z,97736.97
2023-01-11T02:45:01.879Z,97744.59
2023-01-11T02:47:03.238Z,97741.94
2023-01-11T02:49:04.710Z,97735.13
2023-01-11T02:51:06.071Z,97728.28
2023-01-11T02:53:07.378Z,97730.06
2023-01-11T02:55:08.744Z,97726.56
2023-01-11T02:57:10.078Z,97730.00
2023-01-11T02:59:11.407Z,97725.72
2023-01-11T03:01:12.741Z,97719.78
2023-01-11T03:03:14.137Z,97721.50
2023-01-11T03:05:15.520Z,97720.78
2023-01-11T03:07:16.817Z,97720.09
2023-01-11T03:09:18.116Z,97516.00
2023-01-11T03:11:45.404Z,97715.25
2023-01-11T03:13:46.806Z,97706.09
2023-01-11T03:15:48.170Z,97707.88
2023-01-11T03:17:49.548Z,97699.38
2023-01-11T03:19:50.932Z,97709.72
2023-01-11T03:21:52.230Z,97699.56
2023-01-11T03:23:53.569Z,97703.06
2023-01-11T03:25:54.867Z,97694.56
2023-01-11T03:27:56.198Z,97692.94
2023-01-11T03:29:57.573Z,97690.44
2023-01-11T03:31:58.902Z,97686.22
2023-01-11T03:34:00.201Z,97681.25
2023-01-11T03:36:01.549Z,97681.25
2023-01-11T03:38:02.918Z,97676.28
2023-01-11T03:40:04.336Z,97678.94
2023-01-11T03:42:05.648Z,97667.78
2023-01-11T03:44:07.019Z,97669.50
2023-01-11T03:46:08.418Z,97677.63
2023-01-11T03:48:09.748Z,97670.78
2023-01-11T03:50:11.228Z,97667.06
2023-01-11T03:52:12.761Z,97666.75
2023-01-11T03:54:14.068Z,97661.53
2023-01-11T03:56:15.379Z,97653.44
2023-01-11T03:58:16.723Z,97654.00
2023-01-11T04:00:18.043Z,97653.97
2023-01-11T04:02:19.388Z,97645.03
2023-01-11T04:04:20.762Z,97648.50
2023-01-11T04:06:22.127Z,97647.75
2023-01-11T04:08:23.491Z,97639.63
2023-01-11T04:10:24.828Z,97634.16
2023-01-11T04:12:26.125Z,97641.69
2023-01-11T04:14:27.684Z,97623.66
2023-01-11T04:16:28.985Z,97629.44
2023-01-11T04:18:30.339Z,97624.19
2023-01-11T04:20:31.635Z,97622.41
2023-01-11T04:22:32.935Z,97616.38
2023-01-11T04:24:34.231Z,97610.38
2023-01-11T04:26:35.561Z,97611.09
2023-01-11T04:28:36.898Z,97597.41
2023-01-11T04:30:38.321Z,97608.44
2023-01-11T04:32:39.651Z,97610.94
2023-01-11T04:34:40.949Z,97601.47
2023-01-11T04:36:42.292Z,97603.09
2023-01-11T04:38:43.609Z,97591.94
2023-01-11T04:40:44.900Z,97591.94
2023-01-11T04:42:46.232Z,97592.72
2023-01-11T04:44:48.847Z,97589.28
2023-01-11T04:46:50.228Z,97589.22
2023-01-11T04:48:52.365Z,97573.97
2023-01-11T04:50:53.659Z,97578.97
2023-01-11T04:52:54.950Z,97572.97
2023-01-11T04:54:56.355Z,97578.97
2023-01-11T04:56:57.652Z,97596.81
2023-01-11T04:58:58.994Z,97569.56
2023-01-11T05:01:00.392Z,97567.94
2023-01-11T05:03:01.714Z,97563.75
2023-01-11T05:05:03.013Z,97558.81
2023-01-11T05:07:04.328Z,97562.38
2023-01-11T05:09:05.715Z,97558.34
2023-01-11T05:11:07.063Z,97554.28
2023-01-11T05:13:08.361Z,97557.03
2023-01-11T05:15:09.879Z,97549.66
2023-01-11T05:17:11.182Z,97560.09
2023-01-11T05:19:12.481Z,97559.50
2023-01-11T05:21:13.786Z,97546.09
2023-01-11T05:23:15.098Z,97543.66
2023-01-11T05:25:16.436Z,97550.50
2023-01-11T05:27:17.734Z,97546.25
2023-01-11T05:29:21.140Z,97548.81
2023-01-11T05:31:22.524Z,97559.94
2023-01-11T05:33:23.862Z,97553.25
2023-01-11T05:35:25.194Z,97559.25
2023-01-11T05:37:26.629Z,97548.97
2023-01-11T05:39:28.024Z,97543.88
2023-01-11T05:41:29.360Z,97552.28
2023-01-11T05:43:30.657Z,97548.84
2023-01-11T05:45:32.964Z,97547.81
2023-01-11T05:47:34.346Z,97551.13
2023-01-11T05:49:35.676Z,97550.06
2023-01-11T05:51:38.268Z,97555.94
2023-01-11T05:53:39.604Z,97556.59
2023-01-11T05:55:41.104Z,97566.75
2023-01-11T05:57:42.447Z,97549.66
2023-01-11T05:59:44.226Z,97552.97
2023-01-11T06:01:45.607Z,97549.50
2023-01-11T06:03:46.972Z,97547.72
2023-01-11T06:05:48.303Z,97540.81
2023-01-11T06:07:49.587Z,97540.75
2023-01-11T06:09:50.919Z,97546.59
2023-01-11T06:11:52.262Z,97557.63
2023-01-11T06:13:53.618Z,97557.50
2023-01-11T06:15:54.950Z,97550.69
2023-01-11T06:17:56.632Z,97546.38
2023-01-11T06:19:57.926Z,97552.41
2023-01-11T06:21:59.278Z,97555.81
2023-01-11T06:24:00.702Z,97550.63
2023-01-11T06:26:02.303Z,97540.41
2023-01-11T06:28:03.612Z,97542.97
2023-01-11T06:30:04.959Z,97548.16
2023-01-11T06:32:06.281Z,97536.16
2023-01-11T06:34:07.631Z,97538.72
2023-01-11T06:36:11.671Z,97539.63
2023-01-11T06:38:12.974Z,97545.69
2023-01-11T06:40:14.355Z,97551.66
2023-01-11T06:42:15.731Z,97549.19
2023-01-11T06:44:17.179Z,97546.78
2023-01-11T06:46:19.246Z,97548.59
2023-01-11T06:48:20.676Z,97557.25
2023-01-11T06:50:22.003Z,97559.03
2023-01-11T06:52:23.314Z,97562.56
2023-01-11T06:54:25.650Z,97558.41
2023-01-11T06:56:26.958Z,97547.44
2023-01-11T06:58:28.297Z,97554.28
2023-01-11T07:00:29.778Z,97561.97
2023-01-11T07:02:31.306Z,97553.59
2023-01-11T07:04:32.602Z,97546.88
2023-01-11T07:06:33.897Z,97548.66
2023-01-11T07:08:35.235Z,97548.66
2023-01-11T07:10:36.588Z,97542.78
2023-01-11T07:12:37.882Z,97545.34
2023-01-11T07:14:39.217Z,97551.31
2023-01-11T07:16:40.507Z,97548.72
2023-01-11T07:18:41.801Z,97554.69
2023-01-11T07:20:43.122Z,97552.00
2023-01-11T07:22:44.454Z,97546.81
2023-01-11T07:24:48.314Z,97552.63
2023-01-11T07:26:49.786Z,97561.81
2023-01-11T07:28:51.092Z,97548.13
2023-01-11T07:30:58.724Z,97547.13
2023-01-11T07:33:00.590Z,97552.25
2023-01-11T07:35:01.901Z,97538.53
2023-01-11T07:37:03.257Z,97546.13
2023-01-11T07:39:04.545Z,97546.88
2023-01-11T07:41:25.795Z,97535.72
2023-01-11T07:43:27.142Z,97534.75
2023-01-11T07:45:34.402Z,97533.88
2023-01-11T07:47:42.287Z,97542.38
2023-01-11T07:49:43.587Z,97538.97
2023-01-11T07:51:44.883Z,97540.59
2023-01-11T07:53:46.246Z,97536.31
2023-01-11T07:55:47.599Z,97536.38
2023-01-11T07:57:48.905Z,97545.63
2023-01-11T07:59:50.266Z,97544.00
2023-01-11T08:01:51.614Z,97539.72
2023-01-11T08:03:53.051Z,97537.16
2023-01-11T08:05:54.553Z,97542.28
2023-01-11T08:07:55.846Z,97531.31
2023-01-11T08:09:57.146Z,97526.28
2023-01-11T08:12:16.976Z,97520.31
2023-01-11T08:14:36.674Z,97512.72
2023-01-11T08:16:37.970Z,97528.13
2023-01-11T08:18:39.317Z,97525.59
2023-01-11T08:20:40.696Z,97510.44
2023-01-11T08:22:42.088Z,97515.69
2023-01-11T08:24:43.607Z,97514.03
2023-01-11T08:26:45.403Z,97509.81
2023-01-11T08:28:46.720Z,97511.59
2023-01-11T08:30:48.025Z,97515.91
2023-01-11T08:32:49.497Z,97511.75
2023-01-11T08:34:50.865Z,97519.44
2023-01-11T08:36:52.206Z,97517.78
2023-01-11T08:38:53.519Z,97518.66
2023-01-11T08:40:54.845Z,97511.88
2023-01-11T08:42:56.730Z,97522.91
2023-01-11T08:44:58.054Z,97520.41
2023-01-11T08:47:02.138Z,97529.78
2023-01-11T08:49:03.477Z,97538.28
2023-01-11T08:51:06.001Z,97527.22
2023-01-11T08:53:07.357Z,97524.59
2023-01-11T08:55:08.731Z,97533.00
2023-01-11T08:57:10.065Z,97522.78
2023-01-11T08:59:11.623Z,97539.69
2023-01-11T09:01:12.988Z,97530.22
2023-01-11T09:03:15.103Z,97530.16
2023-01-11T09:05:18.279Z,97520.72
2023-01-11T09:07:23.243Z,97529.16
2023-01-11T09:09:24.617Z,97524.81
2023-01-11T09:11:44.614Z,97520.50
2023-01-11T09:13:45.929Z,97525.50
2023-01-11T09:15:47.882Z,97522.19
2023-01-11T09:17:49.243Z,97522.94
2023-01-11T09:19:50.710Z,97530.59
2023-01-11T09:21:52.199Z,97517.81
2023-01-11T09:23:53.499Z,97533.91
2023-01-11T09:25:54.957Z,97520.41
2023-01-11T09:27:56.284Z,97528.94
2023-01-11T09:29:57.658Z,97532.41
2023-01-11T09:31:59.077Z,97529.06
2023-01-11T09:34:00.375Z,97537.59
2023-01-11T09:36:02.948Z,97522.19
2023-01-11T09:38:04.339Z,97525.56
2023-01-11T09:40:05.636Z,97525.59
2023-01-11T09:42:07.447Z,97521.41
2023-01-11T09:44:12.045Z,97509.56
2023-01-11T09:46:13.377Z,97520.66
2023-01-11T09:48:17.430Z,97510.44
2023-01-11T09:50:19.777Z,97513.94
2023-01-11T09:52:21.085Z,97501.22
2023-01-11T09:54:22.442Z,97511.44
2023-01-11T09:56:25.319Z,97512.28
2023-01-11T09:58:28.708Z,97512.28
2023-01-11T10:00:30.107Z,97506.41
2023-01-11T10:02:31.603Z,97508.94
2023-01-11T10:04:33.764Z,97497.94
2023-01-11T10:06:35.094Z,97500.50
2023-01-11T10:18:28.616Z,97238.97
2023-01-11T10:18:30.322Z,97496.34
2023-01-11T10:20:35.340Z,97498.88
2023-01-11T10:22:39.692Z,97497.09
2023-01-11T10:24:42.236Z,97486.97
2023-01-11T10:26:43.999Z,97496.25
2023-01-11T10:28:54.435Z,97495.34
2023-01-11T10:31:08.432Z,97489.44
2023-01-11T10:33:09.807Z,97488.59
2023-01-11T10:35:24.410Z,97478.41
2023-01-11T10:37:25.706Z,97482.63
2023-01-11T10:39:45.591Z,97477.47
2023-01-11T10:41:52.534Z,97475.72
2023-01-11T10:43:53.919Z,97474.03
2023-01-11T10:45:55.419Z,97474.88
2023-01-11T10:47:56.776Z,97468.88
2023-01-11T10:49:58.094Z,97463.66
2023-01-11T10:51:59.419Z,97461.13
2023-01-11T10:54:00.900Z,97466.25
2023-01-11T10:56:02.369Z,97461.16
2023-01-11T10:58:03.903Z,97468.81
2023-01-11T11:00:05.379Z,97462.84
2023-01-11T11:02:06.786Z,97450.09
2023-01-11T11:04:08.118Z,97450.84
2023-01-11T11:06:09.452Z,97448.28
2023-01-11T11:08:13.237Z,97446.56
2023-01-11T11:10:15.160Z,97438.06
2023-01-11T11:12:16.454Z,97441.41
2023-01-11T11:14:18.763Z,97444.91
2023-01-11T11:16:20.097Z,97440.63
2023-01-11T11:18:21.430Z,97434.69
2023-01-11T11:20:22.759Z,97441.47
2023-01-11T11:22:24.054Z,97451.78
2023-01-11T11:24:27.810Z,97449.22
2023-01-11T11:26:29.226Z,97430.50
2023-01-11T11:28:30.579Z,97439.84
2023-01-11T11:30:31.917Z,97438.16
2023-01-11T11:32:35.597Z,97433.97
2023-01-11T11:34:39.042Z,97433.97
2023-01-11T11:36:40.344Z,97425.47
2023-01-11T11:38:41.665Z,97421.19
2023-01-11T11:40:43.006Z,97415.25
2023-01-11T11:42:44.308Z,97409.22
2023-01-11T11:44:45.616Z,97397.28
2023-01-11T11:46:46.952Z,97391.41
2023-01-11T11:48:48.283Z,97393.16
2023-01-11T11:50:49.535Z,97382.03
2023-01-11T11:52:50.828Z,97376.09
2023-01-11T11:54:53.310Z,97371.81
2023-01-11T11:56:54.611Z,97365.03
2023-01-11T11:58:56.928Z,97364.16
2023-01-11T12:00:58.266Z,97362.47
2023-01-11T12:02:59.607Z,97352.31
2023-01-11T12:05:00.938Z,97352.28
2023-01-11T12:07:02.261Z,97359.06
2023-01-11T12:09:06.679Z,97355.72
2023-01-11T12:11:08.127Z,97363.47
2023-01-11T12:13:09.458Z,97361.69
2023-01-11T12:15:10.809Z,97369.34
2023-01-11T12:17:12.135Z,97355.81
2023-01-11T12:19:13.431Z,97352.41
2023-01-11T12:21:14.890Z,97347.19
2023-01-11T12:23:17.004Z,97351.41
2023-01-11T12:25:18.307Z,97349.75
2023-01-11T12:27:19.670Z,97354.88
2023-01-11T12:29:21.047Z,97352.41
2023-01-11T12:31:22.390Z,97351.50
2023-01-11T12:33:23.730Z,97344.75
2023-01-11T12:35:25.037Z,97343.81
2023-01-11T12:37:26.446Z,97338.63
2023-01-11T12:39:27.789Z,97333.53
2023-01-11T12:41:44.451Z,97336.13
2023-01-11T12:43:45.831Z,97337.00
2023-01-11T12:45:47.247Z,97332.75
2023-01-11T12:47:48.857Z,97338.69
2023-01-11T12:49:50.156Z,97335.28
2023-01-11T12:51:51.494Z,97336.13
2023-01-11T12:53:52.831Z,97324.22
2023-01-11T12:55:54.123Z,97325.03
2023-01-11T12:58:14.110Z,97325.09
2023-01-11T13:00:15.917Z,97314.03
2023-01-11T13:02:17.275Z,97304.63
2023-01-11T13:04:19.900Z,97307.19
2023-01-11T13:06:21.242Z,97311.44
2023-01-11T13:08:22.609Z,97302.09
2023-01-11T13:10:23.937Z,97315.66
2023-01-11T13:12:25.259Z,97306.34
2023-01-11T13:14:26.555Z,97308.91
2023-01-11T13:16:27.889Z,97310.53
2023-01-11T13:18:29.325Z,97295.22
2023-01-11T13:20:30.914Z,97297.84
2023-01-11T13:22:33.526Z,97304.66
2023-01-11T13:24:34.863Z,97302.88
2023-01-11T13:26:36.274Z,97301.97
2023-01-11T13:28:37.736Z,97303.75
2023-01-11T13:30:39.103Z,97307.91
2023-01-11T13:32:40.500Z,97308.75
2023-01-11T13:34:41.807Z,97301.16
2023-01-11T13:36:43.120Z,97301.03
2023-01-11T13:38:44.462Z,97305.44
2023-01-11T13:40:45.848Z,97296.09
2023-01-11T13:42:47.143Z,97303.75
2023-01-11T13:44:48.483Z,97300.31
2023-01-11T13:46:50.013Z,97309.59
2023-01-11T13:48:51.306Z,97313.97
2023-01-11T13:50:52.633Z,97303.75
2023-01-11T13:52:53.924Z,97309.69
2023-01-11T13:54:55.307Z,97311.38
2023-01-11T13:56:56.665Z,97314.03
2023-01-11T13:58:58.026Z,97300.66
2023-01-11T14:00:59.368Z,97312.84
2023-01-11T14:03:01.418Z,97304.63
2023-01-11T14:05:02.759Z,97300.53
2023-01-11T14:07:04.055Z,97304.03
2023-01-11T14:09:05.388Z,97310.94
2023-01-11T14:11:06.687Z,97313.53
2023-01-11T14:13:07.982Z,97317.66
2023-01-11T14:15:09.276Z,97315.06
2023-01-11T14:17:10.568Z,97321.03
2023-01-11T14:19:11.934Z,97313.09
2023-01-11T14:21:13.257Z,97311.34
2023-01-11T14:23:14.610Z,97304.63
2023-01-11T14:25:15.941Z,97310.41
2023-01-11T14:27:17.262Z,97312.28
2023-01-11T14:29:18.724Z,97307.72
2023-01-11T14:31:20.068Z,97304.66
2023-01-11T14:33:21.391Z,97311.19
2023-01-11T14:35:22.740Z,97313.59
2023-01-11T14:37:24.074Z,97307.38
2023-01-11T14:39:25.429Z,97309.69
2023-01-11T14:41:26.755Z,97308.03
2023-01-11T14:43:28.051Z,97307.78
2023-01-11T14:45:29.490Z,97308.41
2023-01-11T14:47:30.798Z,97309.00
2023-01-11T14:49:32.131Z,97311.50
2023-01-11T14:51:33.967Z,97306.50
2023-01-11T14:53:35.346Z,97305.41
2023-01-11T14:55:37.444Z,97307.53
2023-01-11T14:57:39.775Z,97301.81
2023-01-11T14:59:41.088Z,97302.13
2023-01-11T15:01:42.432Z,97301.34
2023-01-11T15:03:46.832Z,97298.91
2023-01-11T15:05:48.154Z,97294.72
2023-01-11T15:07:49.451Z,97290.56
2023-01-11T15:09:56.708Z,97289.00
2023-01-11T15:11:58.106Z,97295.78
2023-01-11T15:13:59.410Z,97296.63
2023-01-11T15:16:19.148Z,97299.22
2023-01-11T15:18:20.477Z,97150.16
2023-01-11T15:20:21.812Z,97301.22
2023-01-11T15:22:23.115Z,97301.31
2023-01-11T15:24:24.520Z,97309.06
2023-01-11T15:26:25.857Z,97303.16
2023-01-11T15:28:27.202Z,97302.44
2023-01-11T15:30:28.768Z,97293.16
2023-01-11T15:32:30.107Z,97298.38
2023-01-11T15:34:31.441Z,97300.06
2023-01-11T15:36:32.736Z,97295.81
2023-01-11T15:38:34.041Z,97304.44
2023-01-11T15:40:35.459Z,97302.75
2023-01-11T15:42:39.604Z,97302.88
2023-01-11T15:44:40.908Z,97312.19
2023-01-11T15:46:54.798Z,97309.59
2023-01-11T15:48:56.152Z,97312.97
2023-01-11T15:50:57.466Z,97315.22
2023-01-11T15:52:58.832Z,97311.88
2023-01-11T15:55:00.148Z,97311.97
2023-01-11T15:57:04.467Z,97306.81
2023-01-11T15:59:05.775Z,97309.75
2023-01-11T16:01:07.180Z,97310.22
2023-01-11T16:03:08.535Z,97316.00
2023-01-11T16:05:09.851Z,97310.88
2023-01-11T16:07:11.143Z,97315.88
2023-01-11T16:09:12.451Z,97325.97
2023-01-11T16:11:13.791Z,97320.78
2023-01-11T16:13:15.287Z,97322.38
2023-01-11T16:15:16.728Z,97321.50
2023-01-11T16:17:18.038Z,97321.50
2023-01-11T16:19:22.634Z,97337.69
2023-01-11T16:21:23.924Z,97308.63
2023-01-11T16:23:25.230Z,97319.78
2023-01-11T16:25:26.609Z,97321.50
2023-01-11T16:27:27.983Z,97320.44
2023-01-11T16:29:29.779Z,97328.13
2023-01-11T16:31:31.118Z,97326.66
2023-01-11T16:33:35.165Z,97322.47
2023-01-11T16:35:36.460Z,97326.84
2023-01-11T16:37:40.414Z,97326.13
2023-01-11T16:39:44.390Z,97330.56
2023-01-11T16:41:48.416Z,97333.22
2023-01-11T16:43:52.479Z,97331.59
2023-01-11T16:45:56.713Z,97333.34
2023-01-11T16:47:58.064Z,97340.38
2023-01-11T16:49:59.402Z,97335.38
2023-01-11T16:52:00.759Z,97342.34
2023-01-11T16:54:02.789Z,97340.00
2023-01-11T16:56:06.930Z,97201.06
2023-01-11T16:58:08.292Z,97345.03
2023-01-11T17:00:09.586Z,97347.97
2023-01-11T17:02:13.935Z,97352.13
2023-01-11T17:04:19.252Z,97353.22
2023-01-11T17:06:20.781Z,97354.16
2023-01-11T17:08:22.109Z,97353.38
2023-01-11T17:10:23.519Z,97356.53
2023-01-11T17:12:27.847Z,97352.56
2023-01-11T17:14:29.177Z,97362.00
2023-01-11T17:16:30.599Z,97356.56
2023-01-11T17:18:31.983Z,97357.81
2023-01-11T17:20:33.459Z,97352.25
2023-01-11T17:22:34.762Z,97354.88
2023-01-11T17:24:36.122Z,97365.13
2023-01-11T17:26:40.507Z,97367.06
2023-01-11T17:28:41.850Z,97374.69
2023-01-11T17:30:43.209Z,97360.31
2023-01-11T17:32:44.603Z,97365.47
2023-01-11T17:34:45.898Z,97370.63
2023-01-11T17:36:47.323Z,97379.16
2023-01-11T17:38:48.623Z,97373.25
2023-01-11T17:40:50.038Z,97384.25
2023-01-11T17:43:10.001Z,97384.34
2023-01-11T17:45:14.340Z,97385.00
2023-01-11T17:47:15.646Z,97385.97
2023-01-11T17:49:17.025Z,97386.22
2023-01-11T17:51:20.366Z,97389.22
2023-01-11T17:53:26.798Z,97391.16
2023-01-11T17:55:28.482Z,97381.78
2023-01-11T17:57:29.853Z,97389.59
2023-01-11T17:59:31.396Z,97395.66
2023-01-11T18:01:32.754Z,97397.63
2023-01-11T18:03:34.092Z,97390.94
2023-01-11T18:05:35.387Z,97400.41
2023-01-11T18:07:39.705Z,97397.13
2023-01-11T18:09:41.023Z,97395.75
2023-01-11T18:11:42.331Z,97396.53
2023-01-11T18:13:43.646Z,97392.56
2023-01-11T18:15:48.125Z,97399.41
2023-01-11T18:17:53.168Z,97398.53
2023-01-11T18:19:54.526Z,97387.88
2023-01-11T18:22:01.730Z,97396.72
2023-01-11T18:24:03.034Z,97395.78
2023-01-11T18:26:04.382Z,97402.00
2023-01-11T18:28:08.593Z,97400.06
2023-01-11T18:30:11.399Z,97401.06
2023-01-11T18:32:15.629Z,97402.78
2023-01-11T18:34:16.964Z,97402.34
2023-01-11T18:36:33.286Z,97404.22
2023-01-11T18:38:40.612Z,97417.81
2023-01-11T18:40:41.933Z,97407.06
2023-01-11T18:44:49.417Z,97417.03
2023-01-11T18:46:51.676Z,97423.63
2023-01-11T18:48:53.023Z,97418.94
2023-01-11T18:50:55.773Z,97428.75
2023-01-11T18:52:57.805Z,97436.47
2023-01-11T18:54:59.247Z,97431.47
2023-01-11T18:57:00.590Z,97431.19
2023-01-11T18:59:01.936Z,97436.22
2023-01-11T19:01:05.547Z,97433.06
2023-01-11T19:03:07.215Z,97442.44
2023-01-11T19:05:08.512Z,97449.53
2023-01-11T19:07:09.816Z,97443.72
2023-01-11T19:09:11.168Z,97449.88
2023-01-11T19:11:13.930Z,97447.47
2023-01-11T19:13:24.229Z,97453.50
2023-01-11T19:15:25.593Z,97456.22
2023-01-11T19:17:29.654Z,97451.22
2023-01-11T19:19:31.126Z,97451.28
2023-01-11T19:21:32.457Z,97451.31
2023-01-11T19:23:36.751Z,97451.31
2023-01-11T19:25:38.117Z,97458.88
2023-01-11T19:27:42.482Z,97458.03
2023-01-11T19:29:46.708Z,97458.34
2023-01-11T19:31:51.985Z,97462.72
2023-01-11T19:33:53.279Z,97460.47
2023-01-11T19:35:54.579Z,97465.31
2023-01-11T19:37:55.908Z,97467.16
2023-01-11T19:40:00.285Z,97466.22
2023-01-11T19:42:04.720Z,97481.34
2023-01-11T19:44:06.011Z,97481.34
2023-01-11T19:46:11.418Z,97481.16
2023-01-11T19:48:12.930Z,97478.38
2023-01-11T19:50:14.479Z,97488.53
2023-01-11T19:52:19.266Z,97489.19
2023-01-11T19:54:24.448Z,97490.66
2023-01-11T19:56:25.746Z,97493.91
2023-01-11T19:58:27.066Z,97494.22
2023-01-11T20:00:31.891Z,97491.13
2023-01-11T20:02:33.208Z,97493.88
2023-01-11T20:04:34.571Z,97499.94
2023-01-11T20:06:35.948Z,97503.47
2023-01-11T20:08:44.127Z,97500.09
2023-01-11T20:10:46.456Z,97504.44
2023-01-11T20:12:47.946Z,97516.59
2023-01-11T20:14:49.294Z,97510.41
2023-01-11T20:16:50.624Z,97509.38
2023-01-11T20:18:52.249Z,97510.31
2023-01-11T20:20:53.593Z,97507.34
2023-01-11T20:22:54.927Z,97505.84
2023-01-11T20:24:56.248Z,97505.34
2023-01-11T20:26:57.661Z,97513.22
2023-01-11T20:28:59.034Z,97511.69
2023-01-11T20:31:02.214Z,97519.25
2023-01-11T20:33:03.841Z,97512.19
2023-01-11T20:35:05.186Z,97515.06
2023-01-11T20:37:06.536Z,97516.03
2023-01-11T20:39:09.336Z,97515.56
2023-01-11T20:41:10.643Z,97519.09
2023-01-11T20:43:11.965Z,97521.78
2023-01-11T20:45:13.284Z,97527.75
2023-01-11T20:47:14.618Z,97526.91
2023-01-11T20:49:15.972Z,97524.50
2023-01-11T20:51:17.281Z,97531.84
2023-01-11T20:53:18.657Z,97534.03
2023-01-11T20:55:22.928Z,97534.25
2023-01-11T20:57:24.274Z,97548.13
2023-01-11T20:59:25.578Z,97542.19
2023-01-11T21:01:26.964Z,97543.34
2023-01-11T21:03:28.297Z,97535.16
2023-01-11T21:05:29.631Z,97535.50
2023-01-11T21:07:30.992Z,97543.22
2023-01-11T21:09:32.403Z,97546.88
2023-01-11T21:11:33.722Z,97547.44
2023-01-11T21:13:35.063Z,97534.25
2023-01-11T21:15:36.351Z,97540.56
2023-01-11T21:17:37.872Z,97548.16
2023-01-11T21:19:39.210Z,97541.22
2023-01-11T21:21:40.509Z,97541.06
2023-01-11T21:23:41.810Z,97547.84
2023-01-11T21:25:43.122Z,97550.47
2023-01-11T21:27:44.417Z,97549.75
2023-01-11T21:29:45.781Z,97551.56
2023-01-11T21:31:47.228Z,97558.88
2023-01-11T21:33:48.875Z,97557.69
2023-01-11T21:35:50.205Z,97565.00
2023-01-11T21:37:51.496Z,97556.78
2023-01-11T21:39:52.968Z,97564.97
2023-01-11T21:42:00.149Z,97564.97
2023-01-11T21:44:05.093Z,97571.59
2023-01-11T21:46:06.426Z,97578.03
2023-01-11T21:48:07.731Z,97581.88
2023-01-11T21:50:09.081Z,97573.03
2023-01-11T21:52:10.624Z,97585.19
2023-01-11T21:54:11.924Z,97584.97
2023-01-11T21:56:13.236Z,97583.66
2023-01-11T21:58:14.540Z,97584.59
2023-01-11T22:00:17.104Z,97588.97
2023-01-11T22:02:18.431Z,97583.50
2023-01-11T22:04:19.779Z,97583.41
2023-01-11T22:06:24.051Z,97577.09
2023-01-11T22:08:25.587Z,97593.22
2023-01-11T22:10:27.063Z,97571.69
2023-01-11T22:12:28.407Z,97583.53
2023-01-11T22:14:30.566Z,97583.03
2023-01-11T22:16:31.903Z,97591.34
2023-01-11T22:18:33.254Z,97594.34
2023-01-11T22:20:34.572Z,97601.84
2023-01-11T22:22:35.922Z,97601.13
2023-01-11T22:24:37.252Z,97607.84
2023-01-11T22:26:39.349Z,97608.31
2023-01-11T22:28:59.257Z,97616.06
2023-01-11T22:31:00.596Z,97611.25
2023-01-11T22:33:02.218Z,97617.81
2023-01-11T22:35:03.510Z,97612.88
2023-01-11T22:37:04.851Z,97624.56
2023-01-11T22:39:06.246Z,97611.38
2023-01-11T22:41:07.555Z,97604.38
2023-01-11T22:43:09.325Z,97611.97
2023-01-11T22:45:10.623Z,97613.69
2023-01-11T22:47:12.039Z,97623.91
2023-01-11T22:49:13.405Z,97629.00
2023-01-11T22:51:14.699Z,97629.00
2023-01-11T22:53:16.026Z,97627.28
2023-01-11T22:55:17.337Z,97626.38
2023-01-11T22:57:18.663Z,97625.56
2023-01-11T22:59:20.002Z,97628.91
2023-01-11T23:01:21.401Z,97625.53
2023-01-11T23:03:22.766Z,97623.81
2023-01-11T23:05:24.156Z,97631.41
2023-01-11T23:07:25.482Z,97639.03
2023-01-11T23:09:27.286Z,97632.16
2023-01-11T23:11:47.505Z,97630.47
2023-01-11T23:14:02.001Z,97636.44
2023-01-11T23:16:03.328Z,97638.91
2023-01-11T23:18:04.789Z,97628.66
2023-01-11T23:20:06.083Z,97632.91
2023-01-11T23:22:07.425Z,97631.22
2023-01-11T23:24:08.738Z,97632.94
2023-01-11T23:26:11.808Z,97627.88
2023-01-11T23:28:13.103Z,97619.31
2023-01-11T23:30:14.406Z,97618.59
2023-01-11T23:32:15.712Z,97623.75
2023-01-11T23:34:17.006Z,97633.19
2023-01-11T23:36:21.584Z,97629.00
2023-01-11T23:38:22.920Z,97629.94
2023-01-11T23:40:24.237Z,97620.69
2023-01-11T23:42:28.498Z,97626.72
2023-01-11T23:44:29.817Z,97622.53
2023-01-11T23:46:49.892Z,97632.84
2023-01-11T23:48:51.183Z,97614.19
2023-01-11T23:50:52.489Z,97615.09
2023-01-11T23:52:53.800Z,97632.16
2023-01-11T23:54:55.102Z,97639.09
2023-01-11T23:56:56.446Z,97646.88
2023-01-11T23:58:57.727Z,97656.41
